sensor_id;sensor_type;location;lat;lon;timestamp;pressure;altitude;pressure_sealevel;temperature;humidity
9893;BME280;4985;49.092;8.542;2023-11-19T00:00:34;99225.38;;;15.35;50.21
9893;BME280;4985;49.092;8.542;2023-11-19T00:02:59;99239.44;;;15.36;50.10
9893;BME280;4985;49.092;8.542;2023-11-19T00:05:25;99228.03;;;15.35;50.30
9893;BME280;4985;49.092;8.542;2023-11-19T00:07:50;99221.91;;;15.35;50.01
9893;BME280;4985;49.092;8.542;2023-11-19T00:10:16;99230.69;;;15.35;50.04
9893;BME280;4985;49.092;8.542;2023-11-19T00:12:48;99235.16;;;15.35;50.03
9893;BME280;4985;49.092;8.542;2023-11-19T00:15:14;99215.78;;;15.34;49.93
9893;BME280;4985;49.092;8.542;2023-11-19T00:17:43;99211.28;;;15.35;50.38
9893;BME280;4985;49.092;8.542;2023-11-19T00:20:13;99199.88;;;15.34;50.11
9893;BME280;4985;49.092;8.542;2023-11-19T00:22:39;99199.66;;;15.36;49.93
9893;BME280;4985;49.092;8.542;2023-11-19T00:25:05;99198.84;;;15.35;50.18
9893;BME280;4985;49.092;8.542;2023-11-19T00:27:31;99205.16;;;15.34;49.95
9893;BME280;4985;49.092;8.542;2023-11-19T00:29:56;99205.16;;;15.34;50.17
9893;BME280;4985;49.092;8.542;2023-11-19T00:32:22;99206.00;;;15.35;50.19
9893;BME280;4985;49.092;8.542;2023-11-19T00:34:47;99188.44;;;15.34;49.91
9893;BME280;4985;49.092;8.542;2023-11-19T00:37:13;99179.47;;;15.35;49.95
9893;BME280;4985;49.092;8.542;2023-11-19T00:39:39;99184.78;;;15.35;50.38
9893;BME280;4985;49.092;8.542;2023-11-19T00:42:04;99179.47;;;15.35;50.28
9893;BME280;4985;49.092;8.542;2023-11-19T00:44:30;99176.00;;;15.34;50.20
9893;BME280;4985;49.092;8.542;2023-11-19T00:46:55;99162.72;;;15.34;50.28
9893;BME280;4985;49.092;8.542;2023-11-19T00:49:21;99159.06;;;15.35;50.08
9893;BME280;4985;49.092;8.542;2023-11-19T00:51:46;99154.78;;;15.34;50.15
9893;BME280;4985;49.092;8.542;2023-11-19T00:54:11;99154.56;;;15.36;49.92
9893;BME280;4985;49.092;8.542;2023-11-19T00:56:37;99146.81;;;15.34;50.32
9893;BME280;4985;49.092;8.542;2023-11-19T00:59:02;99154.56;;;15.36;50.14
9893;BME280;4985;49.092;8.542;2023-11-19T01:01:29;99155.59;;;15.35;50.20
9893;BME280;4985;49.092;8.542;2023-11-19T01:03:55;99152.94;;;15.35;50.22
9893;BME280;4985;49.092;8.542;2023-11-19T01:06:32;99152.94;;;15.35;50.26
9893;BME280;4985;49.092;8.542;2023-11-19T01:08:58;99153.97;;;15.34;50.23
9893;BME280;4985;49.092;8.542;2023-11-19T01:11:24;99148.66;;;15.34;50.24
9893;BME280;4985;49.092;8.542;2023-11-19T01:13:50;99146.00;;;15.34;50.41
9893;BME280;4985;49.092;8.542;2023-11-19T01:16:16;99151.31;;;15.34;50.20
9893;BME280;4985;49.092;8.542;2023-11-19T01:18:42;99143.34;;;15.34;50.01
9893;BME280;4985;49.092;8.542;2023-11-19T01:21:07;99150.50;;;15.33;49.98
9893;BME280;4985;49.092;8.542;2023-11-19T01:23:34;99140.69;;;15.34;50.27
9893;BME280;4985;49.092;8.542;2023-11-19T01:25:59;99143.34;;;15.34;50.38
9893;BME280;4985;49.092;8.542;2023-11-19T01:28:24;99135.41;;;15.34;50.11
9893;BME280;4985;49.092;8.542;2023-11-19T01:30:53;99146.00;;;15.34;50.20
9893;BME280;4985;49.092;8.542;2023-11-19T01:33:18;99149.69;;;15.33;50.18
9893;BME280;4985;49.092;8.542;2023-11-19T01:35:44;99147.84;;;15.33;50.55
9893;BME280;4985;49.092;8.542;2023-11-19T01:38:09;99141.72;;;15.33;50.43
9893;BME280;4985;49.092;8.542;2023-11-19T01:40:35;99145.38;;;15.32;50.63
9893;BME280;4985;49.092;8.542;2023-11-19T01:43:02;99145.59;;;15.30;50.77
9893;BME280;4985;49.092;8.542;2023-11-19T01:45:28;99130.69;;;15.29;51.11
9893;BME280;4985;49.092;8.542;2023-11-19T01:47:56;99132.50;;;15.29;50.93
9893;BME280;4985;49.092;8.542;2023-11-19T01:50:22;99136.16;;;15.28;51.49
9893;BME280;4985;49.092;8.542;2023-11-19T01:52:50;99127.41;;;15.27;51.50
9893;BME280;4985;49.092;8.542;2023-11-19T01:55:17;99134.53;;;15.27;51.78
9893;BME280;4985;49.092;8.542;2023-11-19T01:57:45;99127.59;;;15.26;51.92
9893;BME280;4985;49.092;8.542;2023-11-19T02:00:12;99130.25;;;15.26;52.40
9893;BME280;4985;49.092;8.542;2023-11-19T02:02:38;99125.97;;;15.25;52.43
9893;BME280;4985;49.092;8.542;2023-11-19T02:05:05;99119.84;;;15.24;52.75
9893;BME280;4985;49.092;8.542;2023-11-19T02:07:31;99117.38;;;15.23;53.11
9893;BME280;4985;49.092;8.542;2023-11-19T02:09:57;99122.69;;;15.23;52.84
9893;BME280;4985;49.092;8.542;2023-11-19T02:12:25;99116.56;;;15.22;53.34
9893;BME280;4985;49.092;8.542;2023-11-19T02:14:53;99127.38;;;15.21;53.48
9893;BME280;4985;49.092;8.542;2023-11-19T02:17:45;99122.69;;;15.23;53.41
9893;BME280;4985;49.092;8.542;2023-11-19T02:20:10;99121.47;;;15.19;53.83
9893;BME280;4985;49.092;8.542;2023-11-19T02:22:38;99111.69;;;15.19;53.86
9893;BME280;4985;49.092;8.542;2023-11-19T02:25:07;99110.84;;;15.19;53.78
9893;BME280;4985;49.092;8.542;2023-11-19T02:27:57;99112.50;;;15.20;53.76
9893;BME280;4985;49.092;8.542;2023-11-19T02:30:24;99115.34;;;15.18;53.63
9893;BME280;4985;49.092;8.542;2023-11-19T02:32:52;99114.53;;;15.18;53.53
9893;BME280;4985;49.092;8.542;2023-11-19T02:35:18;99113.50;;;15.19;53.52
9893;BME280;4985;49.092;8.542;2023-11-19T02:37:44;99122.28;;;15.19;54.06
9893;BME280;4985;49.092;8.542;2023-11-19T02:40:10;99116.78;;;15.21;54.18
9893;BME280;4985;49.092;8.542;2023-11-19T02:42:35;99121.06;;;15.22;54.07
9893;BME280;4985;49.092;8.542;2023-11-19T02:45:01;99103.53;;;15.21;54.48
9893;BME280;4985;49.092;8.542;2023-11-19T02:47:27;99108.81;;;15.21;54.17
9893;BME280;4985;49.092;8.542;2023-11-19T02:49:55;99113.31;;;15.20;54.35
9893;BME280;4985;49.092;8.542;2023-11-19T02:52:21;99104.53;;;15.20;54.54
9893;BME280;4985;49.092;8.542;2023-11-19T02:54:46;99093.94;;;15.20;54.54
9893;BME280;4985;49.092;8.542;2023-11-19T02:57:11;99091.28;;;15.20;54.35
9893;BME280;4985;49.092;8.542;2023-11-19T02:59:38;99093.13;;;15.19;54.37
9893;BME280;4985;49.092;8.542;2023-11-19T03:02:06;99100.25;;;15.19;54.43
9893;BME280;4985;49.092;8.542;2023-11-19T03:04:33;99097.59;;;15.19;54.75
9893;BME280;4985;49.092;8.542;2023-11-19T03:06:58;99085.97;;;15.20;54.59
9893;BME280;4985;49.092;8.542;2023-11-19T03:09:23;99093.31;;;15.18;54.73
9893;BME280;4985;49.092;8.542;2023-11-19T03:11:50;99085.97;;;15.20;54.59
9893;BME280;4985;49.092;8.542;2023-11-19T03:14:15;99101.88;;;15.20;54.31
9893;BME280;4985;49.092;8.542;2023-11-19T03:16:40;99106.16;;;15.21;54.80
9893;BME280;4985;49.092;8.542;2023-11-19T03:19:06;99103.72;;;15.19;54.92
9893;BME280;4985;49.092;8.542;2023-11-19T03:21:31;99101.88;;;15.20;55.20
9893;BME280;4985;49.092;8.542;2023-11-19T03:23:57;99100.25;;;15.19;55.02
9893;BME280;4985;49.092;8.542;2023-11-19T03:26:28;99093.31;;;15.18;55.25
9893;BME280;4985;49.092;8.542;2023-11-19T03:28:54;99088.81;;;15.18;55.29
9893;BME280;4985;49.092;8.542;2023-11-19T03:31:19;99093.31;;;15.18;54.99
9893;BME280;4985;49.092;8.542;2023-11-19T03:33:45;99090.66;;;15.18;55.33
9893;BME280;4985;49.092;8.542;2023-11-19T03:36:12;99096.94;;;15.17;55.21
9893;BME280;4985;49.092;8.542;2023-11-19T03:38:38;99091.66;;;15.17;55.43
9893;BME280;4985;49.092;8.542;2023-11-19T03:41:11;99095.97;;;15.18;55.39
9893;BME280;4985;49.092;8.542;2023-11-19T03:43:36;99083.69;;;15.17;55.49
9893;BME280;4985;49.092;8.542;2023-11-19T03:46:02;99077.41;;;15.18;55.26
9893;BME280;4985;49.092;8.542;2023-11-19T03:48:27;99072.91;;;15.18;55.31
9893;BME280;4985;49.092;8.542;2023-11-19T03:50:52;99084.34;;;15.19;55.16
9893;BME280;4985;49.092;8.542;2023-11-19T03:53:18;99085.38;;;15.18;55.37
9893;BME280;4985;49.092;8.542;2023-11-19T03:55:44;99089.66;;;15.19;55.34
9893;BME280;4985;49.092;8.542;2023-11-19T03:58:09;99085.97;;;15.20;55.11
9893;BME280;4985;49.092;8.542;2023-11-19T04:00:34;99088.63;;;15.20;55.55
9893;BME280;4985;49.092;8.542;2023-11-19T04:03:00;99083.31;;;15.20;55.57
9893;BME280;4985;49.092;8.542;2023-11-19T04:05:25;99078.22;;;15.18;55.74
9893;BME280;4985;49.092;8.542;2023-11-19T04:07:51;99084.34;;;15.19;55.79
9893;BME280;4985;49.092;8.542;2023-11-19T04:10:16;99081.88;;;15.17;56.14
9893;BME280;4985;49.092;8.542;2023-11-19T04:12:42;99084.50;;;15.17;56.18
9893;BME280;4985;49.092;8.542;2023-11-19T04:15:08;99079.22;;;15.17;56.25
9893;BME280;4985;49.092;8.542;2023-11-19T04:17:33;99074.94;;;15.16;55.98
9893;BME280;4985;49.092;8.542;2023-11-19T04:19:59;99079.41;;;15.15;56.05
9893;BME280;4985;49.092;8.542;2023-11-19T04:22:24;99072.47;;;15.14;55.98
9893;BME280;4985;49.092;8.542;2023-11-19T04:24:50;99076.75;;;15.15;56.09
9893;BME280;4985;49.092;8.542;2023-11-19T04:27:15;99068.81;;;15.15;56.09
9893;BME280;4985;49.092;8.542;2023-11-19T04:29:40;99060.84;;;15.15;56.09
9893;BME280;4985;49.092;8.542;2023-11-19T04:32:06;99063.50;;;15.15;56.29
9893;BME280;4985;49.092;8.542;2023-11-19T04:34:32;99060.25;;;15.13;56.22
9893;BME280;4985;49.092;8.542;2023-11-19T04:36:57;99051.28;;;15.14;56.63
9893;BME280;4985;49.092;8.542;2023-11-19T04:39:26;99038.00;;;15.14;56.68
9893;BME280;4985;49.092;8.542;2023-11-19T04:41:52;99046.97;;;15.13;56.49
9893;BME280;4985;49.092;8.542;2023-11-19T04:44:20;99056.56;;;15.14;56.85
9893;BME280;4985;49.092;8.542;2023-11-19T04:46:46;99054.94;;;15.13;56.79
9893;BME280;4985;49.092;8.542;2023-11-19T04:49:12;99056.56;;;15.14;56.98
9893;BME280;4985;49.092;8.542;2023-11-19T04:51:43;99059.22;;;15.14;56.81
9893;BME280;4985;49.092;8.542;2023-11-19T04:54:09;99042.50;;;15.14;56.82
9893;BME280;4985;49.092;8.542;2023-11-19T04:56:36;99046.97;;;15.13;57.13
9893;BME280;4985;49.092;8.542;2023-11-19T04:59:02;99057.59;;;15.13;57.28
9893;BME280;4985;49.092;8.542;2023-11-19T05:01:27;99049.63;;;15.13;56.90
9893;BME280;4985;49.092;8.542;2023-11-19T05:03:53;99060.25;;;15.13;57.26
9893;BME280;4985;49.092;8.542;2023-11-19T05:06:18;99060.25;;;15.13;57.41
9893;BME280;4985;49.092;8.542;2023-11-19T05:08:44;99057.78;;;15.12;57.20
9893;BME280;4985;49.092;8.542;2023-11-19T05:11:09;99044.31;;;15.13;57.34
9893;BME280;4985;49.092;8.542;2023-11-19T05:13:37;99045.97;;;15.14;57.17
9893;BME280;4985;49.092;8.542;2023-11-19T05:16:02;99036.59;;;15.12;57.31
9893;BME280;4985;49.092;8.542;2023-11-19T05:18:27;99049.63;;;15.13;57.16
9893;BME280;4985;49.092;8.542;2023-11-19T05:20:53;99050.25;;;15.15;56.91
9893;BME280;4985;49.092;8.542;2023-11-19T05:23:18;99054.53;;;15.17;57.03
9893;BME280;4985;49.092;8.542;2023-11-19T05:25:43;99049.22;;;15.17;57.14
9893;BME280;4985;49.092;8.542;2023-11-19T05:28:10;99043.94;;;15.17;57.59
9893;BME280;4985;49.092;8.542;2023-11-19T05:30:36;99040.47;;;15.16;57.25
9893;BME280;4985;49.092;8.542;2023-11-19T05:33:01;99037.81;;;15.16;57.09
9893;BME280;4985;49.092;8.542;2023-11-19T05:35:26;99042.28;;;15.15;57.13
9893;BME280;4985;49.092;8.542;2023-11-19T05:37:52;99054.53;;;15.17;57.24
9893;BME280;4985;49.092;8.542;2023-11-19T05:40:17;99055.34;;;15.17;57.37
9893;BME280;4985;49.092;8.542;2023-11-19T05:42:43;99046.56;;;15.17;57.88
9893;BME280;4985;49.092;8.542;2023-11-19T05:45:11;99048.41;;;15.16;57.80
9893;BME280;4985;49.092;8.542;2023-11-19T05:47:36;99055.56;;;15.15;57.60
9893;BME280;4985;49.092;8.542;2023-11-19T05:50:02;99049.22;;;15.17;57.59
9893;BME280;4985;49.092;8.542;2023-11-19T05:52:28;99037.00;;;15.15;57.71
9893;BME280;4985;49.092;8.542;2023-11-19T05:54:58;99043.94;;;15.17;57.40
9893;BME280;4985;49.092;8.542;2023-11-19T05:57:23;99045.59;;;15.18;57.50
9893;BME280;4985;49.092;8.542;2023-11-19T05:59:50;99037.81;;;15.16;57.50
9893;BME280;4985;49.092;8.542;2023-11-19T06:02:16;99038.63;;;15.17;57.74
9893;BME280;4985;49.092;8.542;2023-11-19T06:04:41;99046.56;;;15.17;57.83
9893;BME280;4985;49.092;8.542;2023-11-19T06:07:09;99049.22;;;15.17;57.76
9893;BME280;4985;49.092;8.542;2023-11-19T06:09:34;99038.63;;;15.17;58.08
9893;BME280;4985;49.092;8.542;2023-11-19T06:12:00;99048.25;;;15.18;57.69
9893;BME280;4985;49.092;8.542;2023-11-19T06:14:27;99046.56;;;15.17;57.71
9893;BME280;4985;49.092;8.542;2023-11-19T06:16:52;99038.44;;;15.18;57.84
9893;BME280;4985;49.092;8.542;2023-11-19T06:19:18;99034.13;;;15.17;58.14
9893;BME280;4985;49.092;8.542;2023-11-19T06:21:43;99042.94;;;15.18;57.90
9893;BME280;4985;49.092;8.542;2023-11-19T06:24:08;99033.16;;;15.18;57.98
9893;BME280;4985;49.092;8.542;2023-11-19T06:26:34;99044.56;;;15.19;57.80
9893;BME280;4985;49.092;8.542;2023-11-19T06:29:00;99042.94;;;15.18;57.95
9893;BME280;4985;49.092;8.542;2023-11-19T06:31:25;99043.56;;;15.20;58.05
9893;BME280;4985;49.092;8.542;2023-11-19T06:33:50;99036.63;;;15.19;58.40
9893;BME280;4985;49.092;8.542;2023-11-19T06:36:16;99029.69;;;15.18;58.39
9893;BME280;4985;49.092;8.542;2023-11-19T06:38:42;99034.97;;;15.18;58.32
9893;BME280;4985;49.092;8.542;2023-11-19T06:41:08;99041.91;;;15.19;58.23
9893;BME280;4985;49.092;8.542;2023-11-19T06:43:34;99052.53;;;15.19;58.30
9893;BME280;4985;49.092;8.542;2023-11-19T06:45:59;99064.97;;;15.18;58.09
9893;BME280;4985;49.092;8.542;2023-11-19T06:48:25;99064.97;;;15.18;58.66
9893;BME280;4985;49.092;8.542;2023-11-19T06:50:50;99061.50;;;15.18;58.67
9893;BME280;4985;49.092;8.542;2023-11-19T06:53:16;99059.66;;;15.18;58.47
9893;BME280;4985;49.092;8.542;2023-11-19T06:55:41;99064.16;;;15.18;58.80
9893;BME280;4985;49.092;8.542;2023-11-19T06:58:06;99056.19;;;15.18;58.43
9893;BME280;4985;49.092;8.542;2023-11-19T07:00:32;99071.91;;;15.19;58.40
9893;BME280;4985;49.092;8.542;2023-11-19T07:02:58;99063.13;;;15.19;58.28
9893;BME280;4985;49.092;8.542;2023-11-19T07:05:24;99071.91;;;15.19;58.89
9893;BME280;4985;49.092;8.542;2023-11-19T07:07:49;99079.03;;;15.19;58.77
9893;BME280;4985;49.092;8.542;2023-11-19T07:10:15;99087.00;;;15.19;58.51
9893;BME280;4985;49.092;8.542;2023-11-19T07:12:41;99079.03;;;15.19;58.38
9893;BME280;4985;49.092;8.542;2023-11-19T07:15:07;99080.66;;;15.20;58.44
9893;BME280;4985;49.092;8.542;2023-11-19T07:17:34;99084.13;;;15.20;58.33
9893;BME280;4985;49.092;8.542;2023-11-19T07:20:00;99089.25;;;15.22;58.33
9893;BME280;4985;49.092;8.542;2023-11-19T07:22:26;99090.06;;;15.22;58.08
9893;BME280;4985;49.092;8.542;2023-11-19T07:24:51;99102.28;;;15.23;58.16
9893;BME280;4985;49.092;8.542;2023-11-19T07:27:18;99103.13;;;15.24;57.97
9893;BME280;4985;49.092;8.542;2023-11-19T07:29:44;99104.75;;;15.25;58.29
9893;BME280;4985;49.092;8.542;2023-11-19T07:32:10;99100.47;;;15.24;58.26
9893;BME280;4985;49.092;8.542;2023-11-19T07:34:35;99103.13;;;15.24;58.11
9893;BME280;4985;49.092;8.542;2023-11-19T07:37:01;99104.75;;;15.25;58.41
9893;BME280;4985;49.092;8.542;2023-11-19T07:39:28;99114.34;;;15.26;58.26
9893;BME280;4985;49.092;8.542;2023-11-19T07:41:53;99118.63;;;15.27;58.20
9893;BME280;4985;49.092;8.542;2023-11-19T07:44:19;99122.09;;;15.27;58.56
9893;BME280;4985;49.092;8.542;2023-11-19T07:46:45;99124.75;;;15.27;58.11
9893;BME280;4985;49.092;8.542;2023-11-19T07:49:10;99131.88;;;15.27;58.40
9893;BME280;4985;49.092;8.542;2023-11-19T07:51:36;99127.41;;;15.27;58.32
9893;BME280;4985;49.092;8.542;2023-11-19T07:54:01;99130.03;;;15.27;58.09
9893;BME280;4985;49.092;8.542;2023-11-19T07:56:27;99129.22;;;15.27;58.44
9893;BME280;4985;49.092;8.542;2023-11-19T07:58:52;99125.56;;;15.28;58.38
9893;BME280;4985;49.092;8.542;2023-11-19T08:01:17;99137.81;;;15.29;58.44
9893;BME280;4985;49.092;8.542;2023-11-19T08:03:43;99130.88;;;15.28;58.33
9893;BME280;4985;49.092;8.542;2023-11-19T08:06:09;99124.53;;;15.29;58.24
9893;BME280;4985;49.092;8.542;2023-11-19T08:08:34;99138.44;;;15.31;58.10
9893;BME280;4985;49.092;8.542;2023-11-19T08:11:00;99138.44;;;15.31;58.22
9893;BME280;4985;49.092;8.542;2023-11-19T08:13:25;99136.63;;;15.31;58.27
9893;BME280;4985;49.092;8.542;2023-11-19T08:15:51;99137.44;;;15.32;58.15
9893;BME280;4985;49.092;8.542;2023-11-19T08:18:17;99149.69;;;15.33;58.17
9893;BME280;4985;49.092;8.542;2023-11-19T08:20:43;99143.56;;;15.32;58.15
9893;BME280;4985;49.092;8.542;2023-11-19T08:23:10;99160.28;;;15.33;58.51
9893;BME280;4985;49.092;8.542;2023-11-19T08:25:35;99161.09;;;15.33;58.41
9893;BME280;4985;49.092;8.542;2023-11-19T08:28:00;99173.53;;;15.33;58.92
9893;BME280;4985;49.092;8.542;2023-11-19T08:30:26;99167.22;;;15.34;58.70
9893;BME280;4985;49.092;8.542;2023-11-19T08:32:52;99157.63;;;15.33;58.74
9893;BME280;4985;49.092;8.542;2023-11-19T08:35:17;99162.31;;;15.31;58.60
9893;BME280;4985;49.092;8.542;2023-11-19T08:37:42;99158.66;;;15.32;58.67
9893;BME280;4985;49.092;8.542;2023-11-19T08:40:08;99149.88;;;15.31;58.69
9893;BME280;4985;49.092;8.542;2023-11-19T08:42:34;99143.56;;;15.32;58.89
9893;BME280;4985;49.092;8.542;2023-11-19T08:45:00;99148.84;;;15.32;58.80
9893;BME280;4985;49.092;8.542;2023-11-19T08:47:25;99154.34;;;15.31;58.80
9893;BME280;4985;49.092;8.542;2023-11-19T08:49:51;99149.06;;;15.31;59.15
9893;BME280;4985;49.092;8.542;2023-11-19T08:52:17;99148.03;;;15.32;59.11
9893;BME280;4985;49.092;8.542;2023-11-19T08:54:43;99148.84;;;15.32;59.12
9893;BME280;4985;49.092;8.542;2023-11-19T08:57:08;99157.63;;;15.33;59.31
9893;BME280;4985;49.092;8.542;2023-11-19T08:59:34;99157.63;;;15.33;59.69
9893;BME280;4985;49.092;8.542;2023-11-19T09:02:00;99153.34;;;15.32;59.24
9893;BME280;4985;49.092;8.542;2023-11-19T09:04:25;99163.94;;;15.32;59.13
9893;BME280;4985;49.092;8.542;2023-11-19T09:06:50;99150.50;;;15.33;59.38
9893;BME280;4985;49.092;8.542;2023-11-19T09:09:16;99151.31;;;15.34;59.73
9893;BME280;4985;49.092;8.542;2023-11-19T09:11:41;99161.09;;;15.33;59.51
9893;BME280;4985;49.092;8.542;2023-11-19T09:14:07;99159.47;;;15.32;59.74
9893;BME280;4985;49.092;8.542;2023-11-19T09:16:33;99176.19;;;15.33;59.89
9893;BME280;4985;49.092;8.542;2023-11-19T09:18:58;99170.88;;;15.33;60.03
9893;BME280;4985;49.092;8.542;2023-11-19T09:21:25;99186.00;;;15.32;59.96
9893;BME280;4985;49.092;8.542;2023-11-19T09:23:50;99179.06;;;15.31;59.90
9893;BME280;4985;49.092;8.542;2023-11-19T09:26:16;99178.03;;;15.32;60.14
9893;BME280;4985;49.092;8.542;2023-11-19T09:28:41;99170.88;;;15.33;60.10
9893;BME280;4985;49.092;8.542;2023-11-19T09:31:16;99171.72;;;15.33;60.43
9893;BME280;4985;49.092;8.542;2023-11-19T09:33:42;99172.72;;;15.32;60.43
9893;BME280;4985;49.092;8.542;2023-11-19T09:36:08;99167.41;;;15.32;60.52
9893;BME280;4985;49.092;8.542;2023-11-19T09:38:34;99181.50;;;15.33;60.30
9893;BME280;4985;49.092;8.542;2023-11-19T09:41:04;99178.84;;;15.33;60.35
9893;BME280;4985;49.092;8.542;2023-11-19T09:43:33;99177.00;;;15.33;60.45
9893;BME280;4985;49.092;8.542;2023-11-19T09:46:00;99174.16;;;15.35;60.42
9893;BME280;4985;49.092;8.542;2023-11-19T09:48:32;99173.34;;;15.34;60.44
9893;BME280;4985;49.092;8.542;2023-11-19T09:50:58;99182.13;;;15.35;60.43
9893;BME280;4985;49.092;8.542;2023-11-19T09:53:24;99184.78;;;15.35;60.06
9893;BME280;4985;49.092;8.542;2023-11-19T09:55:50;99181.91;;;15.36;60.36
9893;BME280;4985;49.092;8.542;2023-11-19T09:58:16;99178.25;;;15.37;60.54
9893;BME280;4985;49.092;8.542;2023-11-19T10:00:42;99181.72;;;15.38;60.61
9893;BME280;4985;49.092;8.542;2023-11-19T10:03:10;99189.66;;;15.38;60.53
9893;BME280;4985;49.092;8.542;2023-11-19T10:05:37;99179.06;;;15.38;61.10
9893;BME280;4985;49.092;8.542;2023-11-19T10:08:04;99181.72;;;15.38;61.29
9893;BME280;4985;49.092;8.542;2023-11-19T10:10:30;99166.00;;;15.36;60.98
9893;BME280;4985;49.092;8.542;2023-11-19T10:12:55;99162.53;;;15.36;61.34
9893;BME280;4985;49.092;8.542;2023-11-19T10:15:22;99163.56;;;15.35;61.18
9893;BME280;4985;49.092;8.542;2023-11-19T10:17:48;99166.22;;;15.35;61.39
9893;BME280;4985;49.092;8.542;2023-11-19T10:20:13;99153.75;;;15.35;61.49
9893;BME280;4985;49.092;8.542;2023-11-19T10:22:39;99167.84;;;15.36;61.57
9893;BME280;4985;49.092;8.542;2023-11-19T10:25:08;99154.56;;;15.36;61.09
9893;BME280;4985;49.092;8.542;2023-11-19T10:27:47;99153.56;;;15.37;61.10
9893;BME280;4985;49.092;8.542;2023-11-19T10:30:12;99152.53;;;15.38;60.98
9893;BME280;4985;49.092;8.542;2023-11-19T10:32:38;99158.66;;;15.38;61.27
9893;BME280;4985;49.092;8.542;2023-11-19T10:35:06;99161.97;;;15.40;61.22
9893;BME280;4985;49.092;8.542;2023-11-19T10:37:32;99158.47;;;15.40;61.11
9893;BME280;4985;49.092;8.542;2023-11-19T10:40:00;99164.41;;;15.42;60.91
9893;BME280;4985;49.092;8.542;2023-11-19T10:42:25;99158.09;;;15.43;61.09
9893;BME280;4985;49.092;8.542;2023-11-19T10:44:51;99166.03;;;15.43;61.16
9893;BME280;4985;49.092;8.542;2023-11-19T10:47:18;99166.03;;;15.43;61.33
9893;BME280;4985;49.092;8.542;2023-11-19T10:49:44;99152.78;;;15.43;61.00
9893;BME280;4985;49.092;8.542;2023-11-19T10:52:17;99158.72;;;15.45;60.83
9893;BME280;4985;49.092;8.542;2023-11-19T10:54:44;99164.81;;;15.46;61.10
9893;BME280;4985;49.092;8.542;2023-11-19T10:57:19;99157.69;;;15.46;61.33
9893;BME280;4985;49.092;8.542;2023-11-19T10:59:45;99152.38;;;15.46;61.73
9893;BME280;4985;49.092;8.542;2023-11-19T11:02:14;99151.75;;;15.44;61.42
9893;BME280;4985;49.092;8.542;2023-11-19T11:04:45;99151.75;;;15.44;61.73
9893;BME280;4985;49.092;8.542;2023-11-19T11:07:14;99147.28;;;15.44;61.89
9893;BME280;4985;49.092;8.542;2023-11-19T11:09:41;99148.91;;;15.46;61.54
9893;BME280;4985;49.092;8.542;2023-11-19T11:12:09;99144.41;;;15.46;61.35
9893;BME280;4985;49.092;8.542;2023-11-19T11:14:37;99150.53;;;15.47;61.85
9893;BME280;4985;49.092;8.542;2023-11-19T11:17:03;99153.19;;;15.47;61.92
9893;BME280;4985;49.092;8.542;2023-11-19T11:19:29;99151.38;;;15.47;61.68
9893;BME280;4985;49.092;8.542;2023-11-19T11:21:55;99161.16;;;15.47;61.57
9893;BME280;4985;49.092;8.542;2023-11-19T11:27:49;99148.72;;;15.47;61.83
9893;BME280;4985;49.092;8.542;2023-11-19T11:30:46;99144.03;;;15.49;61.69
9893;BME280;4985;49.092;8.542;2023-11-19T11:38:29;99129.13;;;15.48;61.50
9893;BME280;4985;49.092;8.542;2023-11-19T11:43:52;99128.09;;;15.49;61.29
9893;BME280;4985;49.092;8.542;2023-11-19T11:49:02;99110.16;;;15.51;61.60
9893;BME280;4985;49.092;8.542;2023-11-19T11:54:14;99094.22;;;15.51;61.40
9893;BME280;4985;49.092;8.542;2023-11-19T11:57:12;99100.19;;;15.53;61.59
9893;BME280;4985;49.092;8.542;2023-11-19T12:02:08;99097.53;;;15.53;61.35
9893;BME280;4985;49.092;8.542;2023-11-19T12:04:37;99092.03;;;15.55;61.83
9893;BME280;4985;49.092;8.542;2023-11-19T12:10:06;99084.88;;;15.55;61.65
9893;BME280;4985;49.092;8.542;2023-11-19T12:12:33;99101.00;;;15.54;61.76
9893;BME280;4985;49.092;8.542;2023-11-19T12:20:02;99076.72;;;15.57;61.83
9893;BME280;4985;49.092;8.542;2023-11-19T12:22:28;99069.34;;;15.59;61.99
9893;BME280;4985;49.092;8.542;2023-11-19T12:24:54;99065.72;;;15.60;61.97
9893;BME280;4985;49.092;8.542;2023-11-19T12:27:20;99068.53;;;15.58;62.29
9893;BME280;4985;49.092;8.542;2023-11-19T12:29:48;99069.56;;;15.57;62.34
9893;BME280;4985;49.092;8.542;2023-11-19T12:32:13;99076.50;;;15.58;61.94
9893;BME280;4985;49.092;8.542;2023-11-19T12:34:38;99072.03;;;15.59;62.33
9893;BME280;4985;49.092;8.542;2023-11-19T12:37:04;99076.50;;;15.58;62.17
9893;BME280;4985;49.092;8.542;2023-11-19T12:39:30;99074.50;;;15.60;62.36
9893;BME280;4985;49.092;8.542;2023-11-19T12:41:56;99079.81;;;15.60;62.38
9893;BME280;4985;49.092;8.542;2023-11-19T12:44:24;99073.47;;;15.61;62.40
9893;BME280;4985;49.092;8.542;2023-11-19T12:47:06;99074.28;;;15.62;62.42
9893;BME280;4985;49.092;8.542;2023-11-19T12:49:35;99073.47;;;15.61;61.94
9893;BME280;4985;49.092;8.542;2023-11-19T12:52:00;99078.41;;;15.64;62.06
9893;BME280;4985;49.092;8.542;2023-11-19T12:54:33;99078.19;;;15.66;62.13
9893;BME280;4985;49.092;8.542;2023-11-19T12:56:59;99069.41;;;15.65;62.02
9893;BME280;4985;49.092;8.542;2023-11-19T12:59:24;99054.31;;;15.66;62.44
9893;BME280;4985;49.092;8.542;2023-11-19T13:01:59;99067.38;;;15.67;62.05
9893;BME280;4985;49.092;8.542;2023-11-19T13:04:29;99055.13;;;15.66;62.17
9893;BME280;4985;49.092;8.542;2023-11-19T13:06:59;99055.94;;;15.67;62.46
9893;BME280;4985;49.092;8.542;2023-11-19T13:09:27;99049.63;;;15.68;61.88
9893;BME280;4985;49.092;8.542;2023-11-19T13:11:55;99049.41;;;15.69;62.52
9893;BME280;4985;49.092;8.542;2023-11-19T13:14:22;99042.06;;;15.71;62.13
9893;BME280;4985;49.092;8.542;2023-11-19T13:16:48;99050.03;;;15.71;62.21
9893;BME280;4985;49.092;8.542;2023-11-19T13:19:14;99048.41;;;15.70;62.17
9893;BME280;4985;49.092;8.542;2023-11-19T13:21:41;99048.41;;;15.70;62.27
9893;BME280;4985;49.092;8.542;2023-11-19T13:24:07;99050.84;;;15.72;62.25
9893;BME280;4985;49.092;8.542;2023-11-19T13:26:32;99055.94;;;15.73;62.06
9893;BME280;4985;49.092;8.542;2023-11-19T13:28:58;99054.31;;;15.72;61.64
9893;BME280;4985;49.092;8.542;2023-11-19T13:31:24;99047.00;;;15.75;61.92
9893;BME280;4985;49.092;8.542;2023-11-19T13:33:49;99044.94;;;15.77;62.09
9893;BME280;4985;49.092;8.542;2023-11-19T13:36:15;99039.63;;;15.77;61.77
9893;BME280;4985;49.092;8.542;2023-11-19T13:38:40;99031.47;;;15.78;61.72
9893;BME280;4985;49.092;8.542;2023-11-19T13:41:09;99025.34;;;15.78;62.15
9893;BME280;4985;49.092;8.542;2023-11-19T13:43:36;99023.50;;;15.78;62.03
9893;BME280;4985;49.092;8.542;2023-11-19T13:46:02;99020.03;;;15.78;62.09